PWSweather.com
Personal Weather Stations
Station Observations

AwhituWaiuku, CA 268400

Lat: -37.058, Lon: -174.6346

Elevation: 250

Station Type: Personal

http://www.weather-display.com/windy/gb/grahamsbeach.htm

High Low Average
Temperature 64.3°F17.9°F 55.1°F12.8°F 59.4°F15.2°F
Dew Point 59.7°F15.4°F 50.1°F10.1°F 56.0°F13.3°F
Winds 41.4 mph W66.6 mph W Calm Calm 21.4 mph 34.4 mph
Wind Gusts 56.4 mph90.8 mph -- 25.8 mph41.5 mph
Humidity 94% 77% 88%
Pressure 29.54 in1000.30 in 29.38 in994.90 in -
Precipitation 0.67 in17.00 in - -
Hour Temp Dew Point Humidity Winds Wind Gusts Pressure Precip Precip Rate Daily Precip Total
12:00 AM 64.1°F17.8°C 58.5°F14.7°C 82% 36.8 mph W59.2 kmh W 56.4 mph90.8 kmh 29.42 in996.3 mb - 0.00 in0.0 mm 0.00 in0.0 mm
12:30 AM 64.3°F17.9°C 58.3°F14.6°C 81% 35.7 mph WNW57.5 kmh WNW 50.6 mph81.4 kmh 29.42 in996.3 mb - 0.00 in0.0 mm 0.00 in0.0 mm
01:00 AM 64.3°F17.9°C 58.3°F14.6°C 81% 40.3 mph WNW64.9 kmh WNW 46.0 mph74.0 kmh 29.42 in996.3 mb - 0.00 in0.0 mm 0.00 in0.0 mm
01:30 AM 64.1°F17.8°C 58.1°F14.5°C 81% 38.0 mph WNW61.2 kmh WNW 35.7 mph57.5 kmh 29.41 in995.9 mb - 0.00 in0.0 mm 0.00 in0.0 mm
02:00 AM 63.2°F17.3°C 57.6°F14.2°C 82% 41.4 mph W66.6 kmh W 46.0 mph74.0 kmh 29.42 in996.3 mb - 0.00 in0.0 mm 0.00 in0.0 mm
02:30 AM 62.8°F17.1°C 58.2°F14.6°C 85% 33.4 mph W53.8 kmh W 36.8 mph59.2 kmh 29.43 in996.6 mb - 0.00 in0.0 mm 0.00 in0.0 mm
03:00 AM 63.2°F17.3°C 58.3°F14.6°C 84% 36.8 mph W59.2 kmh W 49.5 mph79.7 kmh 29.44 in997.0 mb - 0.00 in0.0 mm 0.00 in0.0 mm
03:30 AM 62.6°F17.0°C 57.7°F14.3°C 84% 34.5 mph W55.5 kmh W 40.3 mph64.9 kmh 29.45 in997.3 mb - 0.00 in0.0 mm 0.00 in0.0 mm
04:00 AM 62.7°F17.1°C 58.1°F14.5°C 85% 36.8 mph W59.2 kmh W 42.6 mph68.6 kmh 29.45 in997.3 mb - 0.00 in0.0 mm 0.00 in0.0 mm
04:30 AM 62.4°F16.9°C 57.5°F14.2°C 84% 34.5 mph W55.5 kmh W 39.1 mph62.9 kmh 29.46 in997.6 mb - 0.00 in0.0 mm 0.00 in0.0 mm
05:00 AM 62.3°F16.8°C 57.4°F14.1°C 84% 36.8 mph W59.2 kmh W 44.9 mph72.3 kmh 29.47 in998.0 mb - 0.00 in0.0 mm 0.00 in0.0 mm
05:30 AM 62.0°F16.7°C 57.8°F14.3°C 86% 33.4 mph WSW53.8 kmh WSW 36.8 mph59.2 kmh 29.47 in998.0 mb - 0.00 in0.0 mm 0.00 in0.0 mm
06:00 AM 60.0°F15.6°C 57.6°F14.2°C 92% 34.5 mph W55.5 kmh W 38.0 mph61.2 kmh 29.48 in998.3 mb - 0.02 in0.5 mm 0.02 in0.5 mm
06:30 AM 60.5°F15.8°C 57.9°F14.4°C 91% 25.3 mph W40.7 kmh W 27.6 mph44.4 kmh 29.49 in998.6 mb - 0.00 in0.0 mm 0.02 in0.5 mm
07:00 AM 60.4°F15.8°C 58.1°F14.5°C 92% 23.0 mph W37.0 kmh W 26.5 mph42.6 kmh 29.49 in998.6 mb - 0.00 in0.0 mm 0.02 in0.5 mm
07:30 AM 60.0°F15.6°C 57.4°F14.1°C 91% 26.5 mph W42.6 kmh W 28.8 mph46.3 kmh 29.50 in999.0 mb - 0.00 in0.0 mm 0.02 in0.5 mm
08:00 AM 59.9°F15.5°C 57.9°F14.4°C 93% 20.7 mph WSW33.3 kmh WSW 24.2 mph38.9 kmh 29.51 in999.3 mb - 0.00 in0.0 mm 0.02 in0.5 mm
08:30 AM 60.0°F15.6°C 58.0°F14.4°C 93% 18.4 mph WSW29.6 kmh WSW 19.6 mph31.5 kmh 29.51 in999.3 mb - 0.00 in0.0 mm 0.02 in0.5 mm
09:00 AM 59.7°F15.4°C 57.7°F14.3°C 93% 23.0 mph WSW37.0 kmh WSW 28.8 mph46.3 kmh 29.52 in999.7 mb - 0.00 in0.0 mm 0.02 in0.5 mm
09:30 AM 60.0°F15.6°C 58.2°F14.6°C 94% 16.1 mph WSW25.9 kmh WSW 18.4 mph29.6 kmh 29.52 in999.7 mb - 0.01 in0.3 mm 0.03 in0.8 mm
11:00 AM 61.1°F16.2°C 59.4°F15.2°C 94% 5.8 mph W9.3 kmh W 5.8 mph9.3 kmh 29.52 in999.7 mb - 0.00 in0.0 mm 0.03 in0.8 mm
11:30 AM 61.4°F16.3°C 59.7°F15.4°C 94% Calm Calm -- 29.50 in999.0 mb - 0.00 in0.0 mm 0.03 in0.8 mm
12:00 PM 61.5°F16.4°C 59.1°F15.1°C 92% 8.1 mph WNW13.0 kmh WNW 9.2 mph14.8 kmh 29.48 in998.3 mb - 0.00 in0.0 mm 0.03 in0.8 mm
12:30 PM 61.0°F16.1°C 58.7°F14.8°C 92% 11.5 mph NW18.5 kmh NW 11.5 mph18.5 kmh 29.46 in997.6 mb - 0.00 in0.0 mm 0.03 in0.8 mm
01:00 PM 58.7°F14.8°C 56.7°F13.7°C 93% 9.2 mph WNW14.8 kmh WNW 11.5 mph18.5 kmh 29.44 in997.0 mb - 0.22 in5.6 mm 0.25 in6.4 mm
01:30 PM 59.3°F15.2°C 56.9°F13.8°C 92% 39.1 mph WNW62.9 kmh WNW 43.7 mph70.3 kmh 29.45 in997.3 mb - 0.02 in0.5 mm 0.26 in6.6 mm
02:00 PM 57.0°F13.9°C 53.8°F12.1°C 89% 15.0 mph W24.1 kmh W 21.9 mph35.2 kmh 29.42 in996.3 mb - 0.05 in1.3 mm 0.31 in7.9 mm
02:30 PM 58.2°F14.6°C 55.0°F12.8°C 89% 20.7 mph W33.3 kmh W 25.3 mph40.7 kmh 29.42 in996.3 mb - 0.00 in0.0 mm 0.31 in7.9 mm
03:00 PM 59.1°F15.1°C 56.2°F13.4°C 90% 19.6 mph W31.5 kmh W 24.2 mph38.9 kmh 29.42 in996.3 mb - 0.00 in0.0 mm 0.31 in7.9 mm
03:30 PM 58.4°F14.7°C 55.5°F13.1°C 90% 9.2 mph SW14.8 kmh SW 13.8 mph22.2 kmh 29.41 in995.9 mb - 0.00 in0.0 mm 0.31 in7.9 mm
04:00 PM 57.2°F14.0°C 54.2°F12.3°C 90% 4.6 mph SSE7.4 kmh SSE 5.8 mph9.3 kmh 29.38 in994.9 mb - 0.00 in0.0 mm 0.31 in7.9 mm
04:30 PM 56.8°F13.8°C 54.2°F12.3°C 91% 3.5 mph S5.6 kmh S 5.8 mph9.3 kmh 29.39 in995.3 mb - 0.03 in0.8 mm 0.34 in8.6 mm
05:00 PM 56.8°F13.8°C 54.8°F12.7°C 93% Calm Calm -- 29.40 in995.6 mb - 0.07 in1.8 mm 0.41 in10.4 mm
05:30 PM 56.4°F13.6°C 54.4°F12.4°C 93% 5.8 mph SW9.3 kmh SW 10.4 mph16.7 kmh 29.41 in995.9 mb - 0.18 in4.6 mm 0.60 in15.2 mm
06:00 PM 55.3°F12.9°C 53.3°F11.8°C 93% 9.2 mph SW14.8 kmh SW 10.4 mph16.7 kmh 29.41 in995.9 mb - 0.05 in1.3 mm 0.64 in16.3 mm
06:30 PM 55.4°F13.0°C 52.8°F11.6°C 91% 15.0 mph SW24.1 kmh SW 16.1 mph25.9 kmh 29.44 in997.0 mb - 0.00 in0.0 mm 0.64 in16.3 mm
07:00 PM 55.5°F13.1°C 52.3°F11.3°C 89% 17.3 mph WSW27.8 kmh WSW 19.6 mph31.5 kmh 29.45 in997.3 mb - 0.00 in0.0 mm 0.64 in16.3 mm
07:30 PM 55.8°F13.2°C 53.2°F11.8°C 91% 13.8 mph WSW22.2 kmh WSW 17.3 mph27.8 kmh 29.45 in997.3 mb - 0.00 in0.0 mm 0.64 in16.3 mm
08:00 PM 55.7°F13.2°C 52.8°F11.6°C 90% 18.4 mph WSW29.6 kmh WSW 23.0 mph37.0 kmh 29.46 in997.6 mb - 0.00 in0.0 mm 0.64 in16.3 mm
08:30 PM 56.3°F13.5°C 53.1°F11.7°C 89% 21.9 mph WSW35.2 kmh WSW 25.3 mph40.7 kmh 29.47 in998.0 mb - 0.00 in0.0 mm 0.64 in16.3 mm
09:00 PM 55.1°F12.8°C 52.8°F11.6°C 92% 18.4 mph WSW29.6 kmh WSW 26.5 mph42.6 kmh 29.48 in998.3 mb - 0.02 in0.5 mm 0.66 in16.8 mm
09:30 PM 55.8°F13.2°C 52.3°F11.3°C 88% 17.3 mph SW27.8 kmh SW 24.2 mph38.9 kmh 29.49 in998.6 mb - 0.00 in0.0 mm 0.66 in16.8 mm
10:00 PM 56.2°F13.4°C 52.3°F11.3°C 87% 15.0 mph SW24.1 kmh SW 16.1 mph25.9 kmh 29.50 in999.0 mb - 0.00 in0.0 mm 0.66 in16.8 mm
10:30 PM 56.3°F13.5°C 50.9°F10.5°C 82% 18.4 mph SW29.6 kmh SW 28.8 mph46.3 kmh 29.51 in999.3 mb - 0.00 in0.0 mm 0.66 in16.8 mm
11:00 PM 57.1°F13.9°C 50.6°F10.3°C 79% 23.0 mph SW37.0 kmh SW 26.5 mph42.6 kmh 29.52 in999.7 mb - 0.00 in0.0 mm 0.66 in16.8 mm
11:30 PM 57.2°F14.0°C 50.1°F10.1°C 77% 18.4 mph WSW29.6 kmh WSW 28.8 mph46.3 kmh 29.54 in1000.3 mb - 0.00 in0.0 mm 0.66 in16.8 mm